Time;durP1;ratioP1;P1;durP2;ratioP2;P2;SDS_P1;SDS_P2;PMS_P1;PMS_P2;Temp;Humidity;BMP_temperature;BMP_pressure;BME280_temperature;BME280_humidity;BME280_pressure;Samples;Min_cycle;Max_cycle;Signal;HPM_P1;HPM_P2
2021/09/12 00:01:10;;;;;;;18.63;14.73;;;;;;;;;;5055121;28;20439;-69
2021/09/12 00:03:37;;;;;;;20.17;15.67;;;;;;;;;;5054368;28;20453;-69
2021/09/12 00:06:05;;;;;;;20.13;15.17;;;;;;;;;;5054386;28;20940;-68
2021/09/12 00:08:32;;;;;;;20.70;14.87;;;;;;;;;;5054304;28;20444;-69
2021/09/12 00:11:01;;;;;;;19.20;16.47;;;;;;;;;;5054224;28;20480;-68
2021/09/12 00:13:28;;;;;;;21.57;17.07;;;;;;;;;;5054597;28;20479;-69
2021/09/12 00:15:55;;;;;;;21.40;15.83;;;;;;;;;;5054719;28;20441;-69
2021/09/12 00:18:22;;;;;;;20.93;15.23;;;;;;;;;;5054481;28;20440;-68
2021/09/12 00:20:49;;;;;;;22.33;15.27;;;;;;;;;;5054117;28;20455;-69
2021/09/12 00:23:16;;;;;;;23.97;17.43;;;;;;;;;;5054379;28;20479;-68
2021/09/12 00:25:44;;;;;;;18.33;15.93;;;;;;;;;;5054414;28;20456;-69
2021/09/12 00:28:12;;;;;;;21.17;15.30;;;;;;;;;;5054175;28;20443;-69
2021/09/12 00:30:40;;;;;;;26.13;18.07;;;;;;;;;;5054470;28;20838;-69
2021/09/12 00:33:07;;;;;;;24.10;17.20;;;;;;;;;;5053449;28;20446;-68
2021/09/12 00:35:34;;;;;;;22.87;17.40;;;;;;;;;;5053823;28;20450;-68
2021/09/12 00:38:01;;;;;;;19.93;16.60;;;;;;;;;;5053820;28;20450;-68
2021/09/12 00:40:29;;;;;;;22.33;16.47;;;;;;;;;;5054254;28;20452;-68
2021/09/12 00:42:56;;;;;;;24.70;16.57;;;;;;;;;;5054032;28;20446;-69
2021/09/12 00:45:24;;;;;;;24.67;15.73;;;;;;;;;;5054120;28;20444;-69
2021/09/12 00:47:51;;;;;;;23.93;17.47;;;;;;;;;;5053961;28;20516;-68
2021/09/12 00:50:19;;;;;;;22.13;16.33;;;;;;;;;;5053583;28;20477;-68
2021/09/12 00:52:47;;;;;;;25.37;16.57;;;;;;;;;;5053640;28;20453;-69
2021/09/12 00:55:15;;;;;;;18.80;16.80;;;;;;;;;;5054121;28;20820;-69
2021/09/12 00:57:43;;;;;;;19.73;15.50;;;;;;;;;;5053772;28;20847;-69
2021/09/12 01:00:11;;;;;;;26.10;17.60;;;;;;;;;;5054188;28;20446;-69
2021/09/12 01:02:40;;;;;;;22.23;15.67;;;;;;;;;;5053404;28;20443;-69
2021/09/12 01:05:08;;;;;;;23.50;17.50;;;;;;;;;;5053851;28;20445;-69
2021/09/12 01:07:35;;;;;;;22.73;17.67;;;;;;;;;;5053942;28;20814;-69
2021/09/12 01:10:03;;;;;;;22.73;18.03;;;;;;;;;;5053299;28;20795;-69
2021/09/12 01:12:31;;;;;;;23.07;17.80;;;;;;;;;;5054083;28;20475;-70
2021/09/12 01:14:58;;;;;;;23.53;17.17;;;;;;;;;;5053223;28;20434;-69
2021/09/12 01:17:29;;;;;;;22.40;16.60;;;;;;;;;;5054339;28;20450;-69
2021/09/12 01:19:58;;;;;;;20.20;15.37;;;;;;;;;;5053501;28;20621;-69
2021/09/12 01:22:25;;;;;;;20.60;16.17;;;;;;;;;;5053125;28;20966;-69
2021/09/12 01:24:54;;;;;;;23.63;17.10;;;;;;;;;;5053436;28;20440;-70
2021/09/12 01:27:21;;;;;;;26.07;17.70;;;;;;;;;;5053369;28;20440;-69
2021/09/12 01:29:49;;;;;;;22.40;17.10;;;;;;;;;;5052964;28;20939;-69
2021/09/12 01:32:16;;;;;;;20.33;17.30;;;;;;;;;;5053312;28;20479;-69
2021/09/12 01:34:43;;;;;;;20.47;17.17;;;;;;;;;;5053317;28;20444;-69
2021/09/12 01:37:10;;;;;;;26.30;19.20;;;;;;;;;;5052997;28;20452;-69
2021/09/12 01:39:37;;;;;;;26.93;17.63;;;;;;;;;;5053333;28;20541;-69
2021/09/12 01:42:06;;;;;;;24.07;18.80;;;;;;;;;;5053281;28;20808;-69
2021/09/12 01:44:33;;;;;;;27.67;20.03;;;;;;;;;;5052931;28;20446;-69
2021/09/12 01:47:00;;;;;;;30.63;19.30;;;;;;;;;;5056928;28;20814;-69
2021/09/12 01:49:28;;;;;;;23.40;17.77;;;;;;;;;;5056710;28;20980;-69
2021/09/12 01:51:55;;;;;;;24.40;19.60;;;;;;;;;;5057124;28;20489;-69
2021/09/12 01:54:22;;;;;;;24.93;19.40;;;;;;;;;;5056863;28;20959;-69
2021/09/12 01:56:49;;;;;;;27.77;21.30;;;;;;;;;;5056818;28;20934;-69
2021/09/12 01:59:18;;;;;;;23.63;19.17;;;;;;;;;;5057672;28;20808;-69
2021/09/12 02:01:45;;;;;;;32.17;20.13;;;;;;;;;;5057258;28;20444;-68
2021/09/12 02:04:12;;;;;;;28.20;21.33;;;;;;;;;;5057009;28;20455;-68
2021/09/12 02:06:40;;;;;;;29.70;21.50;;;;;;;;;;5057170;28;20443;-69
2021/09/12 02:09:07;;;;;;;30.83;22.13;;;;;;;;;;5057713;28;20449;-68
2021/09/12 02:11:34;;;;;;;32.90;23.40;;;;;;;;;;5056877;28;20484;-68
2021/09/12 02:14:02;;;;;;;34.90;21.73;;;;;;;;;;5056730;28;20445;-69
2021/09/12 02:16:31;;;;;;;32.50;22.93;;;;;;;;;;5056739;28;20447;-69
2021/09/12 02:18:58;;;;;;;34.73;21.93;;;;;;;;;;5056551;28;20452;-68
2021/09/12 02:21:25;;;;;;;33.57;22.80;;;;;;;;;;5056368;28;20934;-69
2021/09/12 02:23:52;;;;;;;34.73;23.73;;;;;;;;;;5056602;28;20812;-69
2021/09/12 02:26:20;;;;;;;35.47;24.23;;;;;;;;;;5056487;28;20438;-68
2021/09/12 02:28:47;;;;;;;38.17;24.63;;;;;;;;;;5056581;28;20794;-69
2021/09/12 02:31:14;;;;;;;35.83;24.07;;;;;;;;;;5056082;28;20477;-69
2021/09/12 02:33:42;;;;;;;33.83;24.10;;;;;;;;;;5056385;28;20953;-68
2021/09/12 02:36:10;;;;;;;37.27;24.53;;;;;;;;;;5056999;28;20448;-68
2021/09/12 02:38:37;;;;;;;32.90;23.43;;;;;;;;;;5055975;28;20441;-69
2021/09/12 02:41:04;;;;;;;36.23;22.63;;;;;;;;;;5056316;28;20780;-69
2021/09/12 02:43:31;;;;;;;37.90;24.93;;;;;;;;;;5055896;28;20448;-68
2021/09/12 02:45:58;;;;;;;36.37;23.80;;;;;;;;;;5056117;28;20458;-68
2021/09/12 02:48:25;;;;;;;37.70;24.00;;;;;;;;;;5055806;28;20961;-69
2021/09/12 02:50:54;;;;;;;37.07;23.87;;;;;;;;;;5054821;28;20468;-69
2021/09/12 02:53:21;;;;;;;33.70;24.20;;;;;;;;;;5054849;28;20444;-69
2021/09/12 02:55:48;;;;;;;33.03;23.50;;;;;;;;;;5054357;28;20446;-68
2021/09/12 02:58:15;;;;;;;35.83;24.37;;;;;;;;;;5054346;28;20451;-69
2021/09/12 03:00:43;;;;;;;29.97;22.67;;;;;;;;;;5054447;28;20933;-68
2021/09/12 03:03:10;;;;;;;35.80;23.20;;;;;;;;;;5054461;28;20446;-68
2021/09/12 03:05:37;;;;;;;29.10;22.47;;;;;;;;;;5054448;28;20445;-69
2021/09/12 03:08:06;;;;;;;28.60;21.70;;;;;;;;;;5054380;28;20436;-69
2021/09/12 03:10:33;;;;;;;32.50;22.20;;;;;;;;;;5054659;28;20453;-69
2021/09/12 03:13:00;;;;;;;31.63;22.57;;;;;;;;;;5054503;28;20483;-69
2021/09/12 03:15:28;;;;;;;34.53;22.80;;;;;;;;;;5054466;28;20448;-68
2021/09/12 03:17:55;;;;;;;34.63;22.27;;;;;;;;;;5055009;28;20862;-68
2021/09/12 03:20:22;;;;;;;34.37;22.60;;;;;;;;;;5054520;28;20434;-68
2021/09/12 03:22:49;;;;;;;31.80;22.70;;;;;;;;;;5054442;28;20540;-69
2021/09/12 03:25:18;;;;;;;31.67;19.73;;;;;;;;;;5054748;28;20457;-69
2021/09/12 03:27:45;;;;;;;32.63;22.77;;;;;;;;;;5054369;28;20438;-69
2021/09/12 03:30:12;;;;;;;34.53;22.63;;;;;;;;;;5054166;28;20453;-69
2021/09/12 03:32:40;;;;;;;31.57;21.90;;;;;;;;;;5054387;28;20480;-68
2021/09/12 03:35:10;;;;;;;38.53;23.57;;;;;;;;;;5054439;28;20445;-69
2021/09/12 03:37:37;;;;;;;31.37;21.23;;;;;;;;;;5054224;28;20448;-69
2021/09/12 03:40:05;;;;;;;31.77;23.20;;;;;;;;;;5053867;28;20932;-69
2021/09/12 03:42:34;;;;;;;35.60;23.57;;;;;;;;;;5054074;28;20446;-69
2021/09/12 03:45:07;;;;;;;35.10;23.50;;;;;;;;;;5054443;28;20437;-69
2021/09/12 03:47:35;;;;;;;39.80;24.30;;;;;;;;;;5054488;28;20917;-69
2021/09/12 03:50:02;;;;;;;40.63;23.83;;;;;;;;;;5016151;28;1087593;-69
2021/09/12 03:52:29;;;;;;;35.33;22.60;;;;;;;;;;5054816;28;20219;-69
2021/09/12 03:54:56;;;;;;;33.30;22.97;;;;;;;;;;5054634;28;20457;-69
2021/09/12 03:57:23;;;;;;;43.10;23.73;;;;;;;;;;5054554;28;20454;-69
2021/09/12 03:59:52;;;;;;;37.87;22.13;;;;;;;;;;5055241;28;20861;-68
2021/09/12 04:02:19;;;;;;;35.63;21.97;;;;;;;;;;5054615;28;21013;-69
2021/09/12 04:04:47;;;;;;;39.17;23.07;;;;;;;;;;5055117;28;20536;-69
2021/09/12 04:07:14;;;;;;;35.23;22.03;;;;;;;;;;5054720;28;20451;-68
2021/09/12 04:09:41;;;;;;;36.53;21.77;;;;;;;;;;5053815;28;20511;-68
2021/09/12 04:12:08;;;;;;;36.20;24.73;;;;;;;;;;5054485;28;20475;-68
2021/09/12 04:14:36;;;;;;;40.03;22.90;;;;;;;;;;5055586;28;20445;-68
2021/09/12 04:17:05;;;;;;;33.23;21.37;;;;;;;;;;5054576;28;20440;-68
2021/09/12 04:19:32;;;;;;;37.00;22.27;;;;;;;;;;5054422;28;20532;-68
2021/09/12 04:21:59;;;;;;;42.23;23.43;;;;;;;;;;5054577;28;20442;-69
2021/09/12 04:24:26;;;;;;;33.87;21.40;;;;;;;;;;5054904;28;20446;-68
2021/09/12 04:26:53;;;;;;;39.17;22.60;;;;;;;;;;5054975;28;20914;-68
2021/09/12 04:29:20;;;;;;;36.37;22.93;;;;;;;;;;5054411;28;20932;-68
2021/09/12 04:31:48;;;;;;;39.33;21.43;;;;;;;;;;5054579;28;20479;-68
2021/09/12 04:34:16;;;;;;;31.70;22.33;;;;;;;;;;5054130;28;20442;-68
2021/09/12 04:36:44;;;;;;;36.37;23.27;;;;;;;;;;5054094;28;20474;-68
2021/09/12 04:39:11;;;;;;;32.87;21.20;;;;;;;;;;5054122;28;20803;-69
2021/09/12 04:41:38;;;;;;;33.10;22.03;;;;;;;;;;5054051;28;20439;-68
2021/09/12 04:44:05;;;;;;;34.60;21.97;;;;;;;;;;5053669;28;20450;-68
2021/09/12 04:46:33;;;;;;;34.77;20.60;;;;;;;;;;5053661;28;20929;-68
2021/09/12 04:49:00;;;;;;;33.90;20.57;;;;;;;;;;5053967;28;20445;-68
2021/09/12 04:51:28;;;;;;;36.17;21.93;;;;;;;;;;5053500;28;20438;-68
2021/09/12 04:53:56;;;;;;;35.70;21.30;;;;;;;;;;5054480;28;20451;-68
2021/09/12 04:56:23;;;;;;;34.70;21.10;;;;;;;;;;5053853;28;20790;-68
2021/09/12 04:58:50;;;;;;;38.07;21.57;;;;;;;;;;5064599;28;20454;-68
2021/09/12 05:01:18;;;;;;;42.07;22.90;;;;;;;;;;5072173;28;20826;-68
2021/09/12 05:03:45;;;;;;;40.30;22.10;;;;;;;;;;5072262;28;20448;-68
2021/09/12 05:06:12;;;;;;;36.70;22.20;;;;;;;;;;5072258;28;20446;-68
2021/09/12 05:08:41;;;;;;;37.93;22.87;;;;;;;;;;5073155;28;20443;-68
2021/09/12 05:11:09;;;;;;;35.70;21.53;;;;;;;;;;5072501;28;20449;-68
2021/09/12 05:13:37;;;;;;;34.47;20.67;;;;;;;;;;5072399;28;20485;-68
2021/09/12 05:16:04;;;;;;;31.70;21.60;;;;;;;;;;5072982;28;20448;-68
2021/09/12 05:18:31;;;;;;;34.63;20.70;;;;;;;;;;5073255;28;20440;-68
2021/09/12 05:20:59;;;;;;;32.60;20.50;;;;;;;;;;5073274;28;20435;-68
2021/09/12 05:23:26;;;;;;;29.40;19.23;;;;;;;;;;5072666;28;20441;-68
2021/09/12 05:25:55;;;;;;;32.83;20.00;;;;;;;;;;5072266;28;20492;-68
2021/09/12 05:28:22;;;;;;;36.17;20.97;;;;;;;;;;5072329;28;20451;-68
2021/09/12 05:30:49;;;;;;;34.90;21.70;;;;;;;;;;5090499;28;20509;-68
2021/09/12 05:33:16;;;;;;;38.73;22.63;;;;;;;;;;5092950;28;20982;-67
2021/09/12 05:35:44;;;;;;;31.37;21.70;;;;;;;;;;5093588;28;20442;-68
2021/09/12 05:38:11;;;;;;;35.57;21.93;;;;;;;;;;5092923;28;20453;-67
2021/09/12 05:40:38;;;;;;;42.23;22.73;;;;;;;;;;5093216;28;20443;-67
2021/09/12 05:43:07;;;;;;;33.23;22.83;;;;;;;;;;5093911;28;20446;-68
2021/09/12 05:45:35;;;;;;;37.33;23.13;;;;;;;;;;5093247;28;20441;-68
2021/09/12 05:48:02;;;;;;;34.33;22.80;;;;;;;;;;5093604;28;20442;-68
2021/09/12 05:50:29;;;;;;;36.60;24.10;;;;;;;;;;5092683;28;20467;-67
2021/09/12 05:52:56;;;;;;;37.43;25.27;;;;;;;;;;5093280;28;20742;-67
2021/09/12 05:55:24;;;;;;;37.10;24.30;;;;;;;;;;5093205;28;20447;-68
2021/09/12 05:57:51;;;;;;;39.83;24.70;;;;;;;;;;5092956;28;20446;-68
2021/09/12 06:00:19;;;;;;;39.37;25.47;;;;;;;;;;5091912;28;20448;-68
2021/09/12 06:02:47;;;;;;;33.33;24.80;;;;;;;;;;5092400;28;20452;-68
2021/09/12 06:05:14;;;;;;;44.07;24.27;;;;;;;;;;5093019;28;20784;-68
2021/09/12 06:07:41;;;;;;;44.57;24.70;;;;;;;;;;5093106;28;20446;-68
2021/09/12 06:10:09;;;;;;;36.60;25.13;;;;;;;;;;5093119;28;20441;-69
2021/09/12 06:12:36;;;;;;;49.00;26.80;;;;;;;;;;5092531;28;20483;-69
2021/09/12 06:15:04;;;;;;;34.80;23.47;;;;;;;;;;5091723;28;20442;-68
2021/09/12 06:17:33;;;;;;;36.13;24.20;;;;;;;;;;5091971;28;20450;-68
2021/09/12 06:20:01;;;;;;;39.47;21.70;;;;;;;;;;5092399;28;20440;-68
2021/09/12 06:22:30;;;;;;;39.63;24.67;;;;;;;;;;5091991;28;20439;-68
2021/09/12 06:24:57;;;;;;;35.80;24.93;;;;;;;;;;5091639;28;20508;-68
2021/09/12 06:27:24;;;;;;;40.00;23.90;;;;;;;;;;5091763;28;21024;-68
2021/09/12 06:29:51;;;;;;;31.83;22.17;;;;;;;;;;5092283;28;20535;-68
2021/09/12 06:32:19;;;;;;;33.77;22.80;;;;;;;;;;5092882;28;20475;-68
2021/09/12 06:34:47;;;;;;;35.77;22.23;;;;;;;;;;5096915;28;20434;-69
2021/09/12 06:37:14;;;;;;;33.13;22.40;;;;;;;;;;5096632;28;20444;-69
2021/09/12 06:39:41;;;;;;;36.50;20.87;;;;;;;;;;5096535;28;20447;-69
2021/09/12 06:42:09;;;;;;;27.73;19.77;;;;;;;;;;5096405;28;20454;-68
2021/09/12 06:44:36;;;;;;;34.47;21.30;;;;;;;;;;5096278;28;20439;-68
2021/09/12 06:47:03;;;;;;;27.80;20.33;;;;;;;;;;5096239;28;20523;-68
2021/09/12 06:49:31;;;;;;;26.43;20.17;;;;;;;;;;5096381;28;20480;-68
2021/09/12 06:52:00;;;;;;;32.20;20.07;;;;;;;;;;5095451;28;20451;-70
2021/09/12 06:54:27;;;;;;;35.40;20.47;;;;;;;;;;5095977;28;20486;-71
2021/09/12 06:57:04;;;;;;;29.57;20.93;;;;;;;;;;5095988;28;20445;-71
2021/09/12 06:59:32;;;;;;;29.70;18.63;;;;;;;;;;5095802;28;20445;-70
2021/09/12 07:01:59;;;;;;;31.43;19.10;;;;;;;;;;5082416;28;20437;-71
2021/09/12 07:04:26;;;;;;;30.27;17.53;;;;;;;;;;5075569;28;21031;-70
2021/09/12 07:06:53;;;;;;;28.73;18.00;;;;;;;;;;5075592;28;20927;-71
2021/09/12 07:09:22;;;;;;;30.67;18.80;;;;;;;;;;5075962;28;20470;-70
2021/09/12 07:11:49;;;;;;;25.40;18.23;;;;;;;;;;5075830;28;20461;-70
2021/09/12 07:14:17;;;;;;;20.83;14.20;;;;;;;;;;5075227;28;20857;-70
2021/09/12 07:16:44;;;;;;;19.80;15.20;;;;;;;;;;5075254;28;20928;-70
2021/09/12 07:19:11;;;;;;;22.67;16.00;;;;;;;;;;5075910;28;20774;-70
2021/09/12 07:21:38;;;;;;;22.63;16.53;;;;;;;;;;5075646;28;20449;-70
2021/09/12 07:24:06;;;;;;;21.70;15.87;;;;;;;;;;5075467;28;20501;-70
2021/09/12 07:26:34;;;;;;;27.00;15.23;;;;;;;;;;5074939;28;20521;-70
2021/09/12 07:29:02;;;;;;;22.60;15.60;;;;;;;;;;5074994;28;20455;-70
2021/09/12 07:31:29;;;;;;;20.43;13.77;;;;;;;;;;5078930;28;20510;-71
2021/09/12 07:33:56;;;;;;;21.70;13.43;;;;;;;;;;5095293;28;20484;-71
2021/09/12 07:36:23;;;;;;;20.50;13.60;;;;;;;;;;5095110;28;20475;-71
2021/09/12 07:38:51;;;;;;;25.47;12.00;;;;;;;;;;5094915;28;20941;-70
2021/09/12 07:41:18;;;;;;;21.90;14.83;;;;;;;;;;5095828;28;20438;-70
2021/09/12 07:43:46;;;;;;;15.30;11.90;;;;;;;;;;5093745;28;20478;-71
2021/09/12 07:46:13;;;;;;;17.13;12.00;;;;;;;;;;5094941;28;20433;-71
2021/09/12 07:48:41;;;;;;;14.40;11.40;;;;;;;;;;5095133;28;20446;-71
2021/09/12 07:51:08;;;;;;;14.50;11.67;;;;;;;;;;5094869;28;20987;-71
2021/09/12 07:53:35;;;;;;;15.23;11.80;;;;;;;;;;5095013;28;20479;-71
2021/09/12 07:56:02;;;;;;;22.67;12.17;;;;;;;;;;5094905;28;20521;-71
2021/09/12 07:58:30;;;;;;;14.53;10.93;;;;;;;;;;5095180;28;20468;-72
2021/09/12 08:00:58;;;;;;;16.93;11.50;;;;;;;;;;5095036;28;20846;-71
2021/09/12 08:03:25;;;;;;;18.50;11.07;;;;;;;;;;5092887;28;20445;-71
2021/09/12 08:05:53;;;;;;;15.80;10.93;;;;;;;;;;5095456;28;20443;-72
2021/09/12 08:08:20;;;;;;;20.57;12.90;;;;;;;;;;5094806;28;20435;-72
2021/09/12 08:10:47;;;;;;;15.00;12.50;;;;;;;;;;5094814;28;20442;-71
2021/09/12 08:13:14;;;;;;;18.83;10.70;;;;;;;;;;5094581;28;20566;-71
2021/09/12 08:15:41;;;;;;;15.67;12.17;;;;;;;;;;5094381;28;20450;-72
2021/09/12 08:18:10;;;;;;;30.00;10.80;;;;;;;;;;5094586;28;20807;-70
2021/09/12 08:20:37;;;;;;;17.07;11.17;;;;;;;;;;5094594;28;20451;-72
2021/09/12 08:23:04;;;;;;;19.17;12.67;;;;;;;;;;5094433;28;20441;-71
2021/09/12 08:25:32;;;;;;;16.70;12.43;;;;;;;;;;5094754;28;20531;-70
2021/09/12 08:27:59;;;;;;;15.90;11.80;;;;;;;;;;5093807;28;20528;-72
2021/09/12 08:30:26;;;;;;;12.53;10.20;;;;;;;;;;5094506;28;20454;-72
2021/09/12 08:32:53;;;;;;;11.87;9.70;;;;;;;;;;5092492;28;20446;-72
2021/09/12 08:35:22;;;;;;;14.00;11.20;;;;;;;;;;5093894;28;20443;-74
2021/09/12 08:37:49;;;;;;;18.10;10.20;;;;;;;;;;5094302;28;20793;-72
2021/09/12 08:40:16;;;;;;;13.60;9.70;;;;;;;;;;5092088;28;20449;-72
2021/09/12 08:42:43;;;;;;;14.37;10.03;;;;;;;;;;5093987;28;20447;-70
2021/09/12 08:45:11;;;;;;;14.80;8.83;;;;;;;;;;5094409;28;20445;-70
2021/09/12 08:47:39;;;;;;;13.30;8.87;;;;;;;;;;5094177;28;20441;-70
2021/09/12 08:50:07;;;;;;;12.57;9.30;;;;;;;;;;5092889;28;20985;-70
2021/09/12 08:52:35;;;;;;;11.40;8.27;;;;;;;;;;5092348;28;20537;-71
2021/09/12 08:55:02;;;;;;;15.63;8.60;;;;;;;;;;5092158;28;20979;-71
2021/09/12 08:57:30;;;;;;;16.07;10.70;;;;;;;;;;5092829;28;20441;-71
2021/09/12 08:59:57;;;;;;;12.30;9.00;;;;;;;;;;5092125;28;20452;-70
2021/09/12 09:02:28;;;;;;;12.07;8.83;;;;;;;;;;5093013;28;20448;-71
2021/09/12 09:05:03;;;;;;;10.43;8.27;;;;;;;;;;5092657;28;20461;-71
2021/09/12 09:07:31;;;;;;;13.83;8.43;;;;;;;;;;5093000;28;20449;-71
2021/09/12 09:10:00;;;;;;;14.07;8.80;;;;;;;;;;5091559;28;20444;-71
2021/09/12 09:12:33;;;;;;;11.10;7.30;;;;;;;;;;5093823;28;20482;-71
2021/09/12 09:15:11;;;;;;;9.07;6.37;;;;;;;;;;5093341;28;20469;-71
2021/09/12 09:17:39;;;;;;;9.03;6.00;;;;;;;;;;5093787;28;20435;-71
2021/09/12 09:20:07;;;;;;;11.17;6.70;;;;;;;;;;5093334;28;20798;-71
2021/09/12 09:22:36;;;;;;;9.50;6.53;;;;;;;;;;5093728;28;20439;-71
2021/09/12 09:25:09;;;;;;;6.77;5.90;;;;;;;;;;5093205;28;20443;-71
2021/09/12 09:27:53;;;;;;;7.53;5.57;;;;;;;;;;5093678;28;20433;-71
2021/09/12 09:30:20;;;;;;;9.00;5.60;;;;;;;;;;5093331;28;20524;-72
2021/09/12 09:32:48;;;;;;;10.43;5.97;;;;;;;;;;5093631;28;20813;-72
2021/09/12 09:35:22;;;;;;;14.17;6.27;;;;;;;;;;5093335;28;20571;-72
2021/09/12 09:37:50;;;;;;;10.33;5.70;;;;;;;;;;5094000;28;20427;-71
2021/09/12 09:40:18;;;;;;;8.40;5.30;;;;;;;;;;5084497;28;20460;-72
2021/09/12 09:42:46;;;;;;;7.80;5.07;;;;;;;;;;5072423;28;20447;-72
2021/09/12 09:45:13;;;;;;;6.63;4.60;;;;;;;;;;5073888;28;20444;-72
2021/09/12 09:47:41;;;;;;;11.10;4.77;;;;;;;;;;5073791;28;20446;-72
2021/09/12 09:50:12;;;;;;;4.23;3.90;;;;;;;;;;5073229;28;20506;-72
2021/09/12 09:52:39;;;;;;;8.73;4.37;;;;;;;;;;5072557;28;20518;-71
2021/09/12 09:55:06;;;;;;;5.87;3.87;;;;;;;;;;5072170;28;21015;-72
2021/09/12 09:57:36;;;;;;;6.60;4.53;;;;;;;;;;5072783;28;20442;-72
2021/09/12 10:00:04;;;;;;;5.73;4.50;;;;;;;;;;5073166;28;20914;-72
2021/09/12 10:02:33;;;;;;;4.23;3.70;;;;;;;;;;5072031;28;20444;-72
2021/09/12 10:05:01;;;;;;;6.63;3.77;;;;;;;;;;5071834;28;20827;-72
2021/09/12 10:07:29;;;;;;;5.80;3.83;;;;;;;;;;5074810;28;20464;-71
2021/09/12 10:09:56;;;;;;;5.30;3.77;;;;;;;;;;5076637;28;20799;-72
2021/09/12 10:12:23;;;;;;;7.47;4.03;;;;;;;;;;5074278;28;20537;-71
2021/09/12 10:14:53;;;;;;;8.07;4.73;;;;;;;;;;5076366;28;20485;-72
2021/09/12 10:17:21;;;;;;;9.90;5.30;;;;;;;;;;5076461;28;20492;-72
2021/09/12 10:19:49;;;;;;;4.60;3.10;;;;;;;;;;5076073;28;20448;-72
2021/09/12 10:22:17;;;;;;;4.53;3.13;;;;;;;;;;5076385;28;20516;-72
2021/09/12 10:25:03;;;;;;;11.83;3.33;;;;;;;;;;5076248;28;20444;-72
2021/09/12 10:27:34;;;;;;;3.63;3.10;;;;;;;;;;5076506;28;20446;-72
2021/09/12 10:30:18;;;;;;;4.43;3.63;;;;;;;;;;5076323;28;20517;-72
2021/09/12 10:32:45;;;;;;;6.63;3.20;;;;;;;;;;5076413;28;20436;-72
2021/09/12 10:35:16;;;;;;;6.80;3.83;;;;;;;;;;5076385;28;21033;-71
2021/09/12 10:37:54;;;;;;;4.67;3.50;;;;;;;;;;5076225;28;20474;-72
2021/09/12 10:40:21;;;;;;;4.90;3.57;;;;;;;;;;5076144;28;20439;-72
2021/09/12 10:42:48;;;;;;;5.77;3.73;;;;;;;;;;5074605;28;20441;-71
2021/09/12 10:45:25;;;;;;;11.93;4.70;;;;;;;;;;5075826;28;20798;-71
2021/09/12 10:47:52;;;;;;;7.20;3.70;;;;;;;;;;5076343;28;20972;-71
2021/09/12 10:50:38;;;;;;;4.50;4.10;;;;;;;;;;5075998;28;20556;-71
2021/09/12 10:53:05;;;;;;;11.97;4.30;;;;;;;;;;5075669;28;20443;-71
2021/09/12 10:55:53;;;;;;;6.13;3.50;;;;;;;;;;5075814;28;20562;-71
2021/09/12 10:58:21;;;;;;;4.10;3.80;;;;;;;;;;5075744;28;20450;-71
2021/09/12 11:00:50;;;;;;;5.30;4.13;;;;;;;;;;5075986;28;20453;-71
2021/09/12 11:03:17;;;;;;;5.37;3.83;;;;;;;;;;5075642;28;20444;-70
2021/09/12 11:05:44;;;;;;;4.63;3.40;;;;;;;;;;5075825;28;20450;-69
2021/09/12 11:08:12;;;;;;;3.80;3.23;;;;;;;;;;5075711;28;20452;-70
2021/09/12 11:10:39;;;;;;;7.43;3.70;;;;;;;;;;5075478;28;20448;-70
2021/09/12 11:13:07;;;;;;;7.40;3.43;;;;;;;;;;5075884;28;20443;-70
2021/09/12 11:15:35;;;;;;;7.80;3.60;;;;;;;;;;5075355;28;20474;-70
2021/09/12 11:18:04;;;;;;;4.57;3.00;;;;;;;;;;5075420;28;20441;-70
2021/09/12 11:20:43;;;;;;;5.93;2.90;;;;;;;;;;5075816;28;20439;-70
2021/09/12 11:23:11;;;;;;;3.93;3.03;;;;;;;;;;5075896;28;20912;-70
2021/09/12 11:25:39;;;;;;;4.60;2.93;;;;;;;;;;5075510;28;20440;-70
2021/09/12 11:28:07;;;;;;;9.07;3.70;;;;;;;;;;5075462;28;20444;-70
2021/09/12 11:30:34;;;;;;;5.20;3.10;;;;;;;;;;5075575;28;20522;-70
2021/09/12 11:33:02;;;;;;;2.73;2.53;;;;;;;;;;5075569;28;20438;-70
2021/09/12 11:35:31;;;;;;;8.40;3.07;;;;;;;;;;5075670;28;20479;-70
2021/09/12 11:38:08;;;;;;;4.63;3.33;;;;;;;;;;5075308;28;20444;-70
2021/09/12 11:40:35;;;;;;;6.00;3.23;;;;;;;;;;5074907;28;20455;-70
2021/09/12 11:43:09;;;;;;;3.37;3.00;;;;;;;;;;5074839;28;20446;-70
2021/09/12 11:45:36;;;;;;;11.00;3.83;;;;;;;;;;5075297;28;20531;-70
2021/09/12 11:48:04;;;;;;;3.93;3.47;;;;;;;;;;5075446;28;20453;-71
2021/09/12 11:50:33;;;;;;;6.13;3.90;;;;;;;;;;5074979;28;20478;-70
2021/09/12 11:53:00;;;;;;;5.93;3.27;;;;;;;;;;5075339;28;20444;-68
2021/09/12 11:55:28;;;;;;;6.73;4.03;;;;;;;;;;5075382;28;20475;-68
2021/09/12 11:57:59;;;;;;;5.80;4.50;;;;;;;;;;5074847;28;20453;-70
2021/09/12 12:00:27;;;;;;;8.83;5.03;;;;;;;;;;5074994;28;20822;-68
2021/09/12 12:02:54;;;;;;;9.07;5.17;;;;;;;;;;5074467;28;20538;-70
2021/09/12 12:05:22;;;;;;;11.10;5.90;;;;;;;;;;5074780;28;20447;-69
2021/09/12 12:07:51;;;;;;;5.73;5.33;;;;;;;;;;5074333;28;20888;-68
2021/09/12 12:10:31;;;;;;;11.40;5.97;;;;;;;;;;5074965;28;20436;-68
2021/09/12 12:12:58;;;;;;;6.53;5.60;;;;;;;;;;5074887;28;20418;-68
2021/09/12 12:15:32;;;;;;;5.93;5.40;;;;;;;;;;5074740;28;20490;-69
2021/09/12 12:17:59;;;;;;;5.80;5.40;;;;;;;;;;5074439;28;20493;-68
2021/09/12 12:20:26;;;;;;;6.90;5.40;;;;;;;;;;5073993;28;20935;-68
2021/09/12 12:22:55;;;;;;;6.47;5.20;;;;;;;;;;5074313;28;20483;-68
2021/09/12 12:25:29;;;;;;;5.87;4.83;;;;;;;;;;5074000;28;20536;-69
2021/09/12 12:27:56;;;;;;;6.73;5.53;;;;;;;;;;5073895;28;20443;-69
2021/09/12 12:30:23;;;;;;;5.90;5.13;;;;;;;;;;5073573;28;20444;-69
2021/09/12 12:32:51;;;;;;;10.23;5.93;;;;;;;;;;5074148;28;20796;-69
2021/09/12 12:35:19;;;;;;;7.23;5.60;;;;;;;;;;5073993;28;20473;-68
2021/09/12 12:37:47;;;;;;;8.93;5.07;;;;;;;;;;5074420;28;20450;-69
2021/09/12 12:40:19;;;;;;;7.50;5.30;;;;;;;;;;5073965;28;20440;-69
2021/09/12 12:42:48;;;;;;;5.50;5.00;;;;;;;;;;5074106;28;20517;-69
2021/09/12 12:45:20;;;;;;;5.73;4.73;;;;;;;;;;5073368;28;20447;-68
2021/09/12 12:47:47;;;;;;;5.63;3.93;;;;;;;;;;5073782;28;20453;-70
2021/09/12 12:50:27;;;;;;;4.63;3.70;;;;;;;;;;5074278;28;20506;-68
2021/09/12 12:53:06;;;;;;;7.23;5.13;;;;;;;;;;5074258;28;20434;-70
2021/09/12 12:55:35;;;;;;;5.87;5.30;;;;;;;;;;5073892;28;20478;-70
2021/09/12 12:58:04;;;;;;;5.00;4.60;;;;;;;;;;5073670;28;20475;-69
2021/09/12 13:00:31;;;;;;;4.77;4.27;;;;;;;;;;5073658;28;20800;-69
2021/09/12 13:02:58;;;;;;;5.30;4.90;;;;;;;;;;5073659;28;20448;-69
2021/09/12 13:05:27;;;;;;;6.70;3.80;;;;;;;;;;5073339;28;20457;-69
2021/09/12 13:07:56;;;;;;;4.67;4.23;;;;;;;;;;5073344;28;20955;-71
2021/09/12 13:10:23;;;;;;;4.63;4.10;;;;;;;;;;5073495;28;20537;-71
2021/09/12 13:12:52;;;;;;;9.30;5.30;;;;;;;;;;5073422;28;20444;-70
2021/09/12 13:15:19;;;;;;;4.60;4.13;;;;;;;;;;5073475;28;20836;-70
2021/09/12 13:17:46;;;;;;;5.00;4.00;;;;;;;;;;5073800;28;20444;-69
2021/09/12 13:20:14;;;;;;;7.70;3.80;;;;;;;;;;5073828;28;20446;-70
2021/09/12 13:22:41;;;;;;;8.73;5.17;;;;;;;;;;5073418;28;20810;-70
2021/09/12 13:25:10;;;;;;;6.47;4.10;;;;;;;;;;5073391;28;20459;-70
2021/09/12 13:27:37;;;;;;;4.23;3.47;;;;;;;;;;5073883;28;20433;-70
2021/09/12 13:30:10;;;;;;;6.00;3.70;;;;;;;;;;5073537;28;20860;-72
2021/09/12 13:32:41;;;;;;;4.13;3.73;;;;;;;;;;5074323;28;20435;-72
2021/09/12 13:35:09;;;;;;;8.80;4.30;;;;;;;;;;5073685;28;20536;-73
2021/09/12 13:37:37;;;;;;;6.10;3.93;;;;;;;;;;5073499;28;20451;-74
2021/09/12 13:40:05;;;;;;;6.13;4.40;;;;;;;;;;5073274;28;20443;-73
2021/09/12 13:42:33;;;;;;;4.47;3.27;;;;;;;;;;5077299;28;20522;-73
2021/09/12 13:45:02;;;;;;;3.57;3.27;;;;;;;;;;5077507;28;20977;-73
2021/09/12 13:47:31;;;;;;;3.60;3.30;;;;;;;;;;5077083;28;20444;-73
2021/09/12 13:49:58;;;;;;;3.83;3.43;;;;;;;;;;5082239;28;20550;-73
2021/09/12 13:52:26;;;;;;;4.73;3.00;;;;;;;;;;5097951;28;20934;-73
2021/09/12 13:54:54;;;;;;;6.77;2.63;;;;;;;;;;5097199;28;21028;-73
2021/09/12 13:57:22;;;;;;;3.10;2.80;;;;;;;;;;5097164;28;20458;-73
2021/09/12 13:59:50;;;;;;;3.73;3.37;;;;;;;;;;5097403;28;20516;-73
2021/09/12 14:02:17;;;;;;;4.10;3.70;;;;;;;;;;5097014;28;20471;-73
2021/09/12 14:04:45;;;;;;;3.63;3.30;;;;;;;;;;5096622;28;21017;-72
2021/09/12 14:07:13;;;;;;;3.97;3.07;;;;;;;;;;5097122;28;20441;-72
2021/09/12 14:09:41;;;;;;;4.00;3.10;;;;;;;;;;5097483;28;20446;-72
2021/09/12 14:12:09;;;;;;;7.77;3.57;;;;;;;;;;5096811;28;20527;-72
2021/09/12 14:14:37;;;;;;;3.73;3.43;;;;;;;;;;5096686;28;20443;-73
2021/09/12 14:17:05;;;;;;;3.30;3.00;;;;;;;;;;5096649;28;20453;-74
2021/09/12 14:19:32;;;;;;;3.10;2.90;;;;;;;;;;5096537;28;20499;-72
2021/09/12 14:22:01;;;;;;;2.93;2.73;;;;;;;;;;5094827;28;20914;-72
2021/09/12 14:24:28;;;;;;;4.17;2.97;;;;;;;;;;5097030;28;20526;-73
2021/09/12 14:26:55;;;;;;;5.97;2.93;;;;;;;;;;5096053;28;20450;-73
2021/09/12 14:29:22;;;;;;;3.73;2.70;;;;;;;;;;5096802;28;20448;-73
2021/09/12 14:31:49;;;;;;;3.37;3.07;;;;;;;;;;5097138;28;20467;-74